Temp: 18.8°C   Baro: 1017.6mb
  Wind: 0.0mph   Dir: W (274°)
  Rain: 0.2mm (0.0mm/hr)
  Solar: 0W/m2  Hum: 84%
 
Bath Spa Weather Station Historical Data
Daily Summary for July 12, 2019 Units:  Both    English   Metric
Daily Weekly Monthly Yearly Custom
  High: Low: Average:
Temperature: 65.3 °F /  18.5 °C 51.4 °F /  10.8 °C 58 °F /  14.4 °C
Dew Point: 54.8 °F /  12.7 °C 46.9 °F /  8.3 °C 51.4 °F /  10.8 °C
Humidity: 95% 51.5% 80%
Wind Speed: 12.2mph /  19.6km/h - 3.1mph /  5km/h
Wind Gust: 22mph /  35.4km/h - -
Wind- - WNW
Pressure: 30.07 in /  1018.2 hPa 29.92 in /  1013.1 hPa -
Precipitation: 0.16 in /  4.06 mm    
Historical Graphs
 
 
Tabular Data for July 12, 2019
Time Temperature Dew Point Pressure Wind Wind Speed Wind Gust Humidity Rainfall Rate (Hourly) solar
00:04 57.1 °F /  13.9 °C 54.6 °F /  12.6 °C 29.92in /  1013.1hPa Calm     91% 0.03in /  0.76mm 0 W/m2
00:09 57 °F /  13.9 °C 54.5 °F /  12.5 °C 29.92in /  1013.1hPa Calm     91% 0.02in /  0.51mm 0 W/m2
00:14 56.9 °F /  13.8 °C 54.4 °F /  12.4 °C 29.92in /  1013.1hPa WNW 0.2mph /  0.3km/h 2mph /  3.2km/h 91% 0.01in /  0.25mm 0 W/m2
00:19 56.8 °F /  13.8 °C 54.3 °F /  12.4 °C 29.92in /  1013.1hPa Calm   2mph /  3.2km/h 91% 0.00in /  0mm 0 W/m2
00:24 56.8 °F /  13.8 °C 54.3 °F /  12.4 °C 29.92in /  1013.1hPa Calm     91% 0.00in /  0mm 0 W/m2
00:29 56.8 °F /  13.8 °C 54.5 °F /  12.5 °C 29.92in /  1013.1hPa WNW 0.2mph /  0.3km/h 2mph /  3.2km/h 91.9% 0.00in /  0mm 0 W/m2
00:34 56.8 °F /  13.8 °C 54.4 °F /  12.4 °C 29.92in /  1013.1hPa Calm   1mph /  1.6km/h 92% 0.00in /  0mm 0 W/m2
00:39 56.7 °F /  13.7 °C 54.3 °F /  12.4 °C 29.92in /  1013.1hPa WNW 0.1mph /  0.2km/h 1mph /  1.6km/h 92% 0.00in /  0mm 0 W/m2
00:44 56.7 °F /  13.7 °C 54.3 °F /  12.4 °C 29.92in /  1013.1hPa WNW 0.1mph /  0.2km/h 1mph /  1.6km/h 92% 0.00in /  0mm 0 W/m2
00:49 56.7 °F /  13.7 °C 54.3 °F /  12.4 °C 29.92in /  1013.1hPa Calm   1mph /  1.6km/h 92% 0.00in /  0mm 0 W/m2
00:54 56.7 °F /  13.7 °C 54.3 °F /  12.4 °C 29.92in /  1013.1hPa Calm   1mph /  1.6km/h 92% 0.00in /  0mm 0 W/m2
00:59 56.6 °F /  13.7 °C 54.2 °F /  12.3 °C 29.92in /  1013.1hPa Calm   1mph /  1.6km/h 92% 0.00in /  0mm 0 W/m2
01:04 56.5 °F /  13.6 °C 54.1 °F /  12.3 °C 29.92in /  1013.1hPa WNW 0.1mph /  0.2km/h 1mph /  1.6km/h 92% 0.00in /  0mm 0 W/m2
01:09 56.4 °F /  13.6 °C 54.1 °F /  12.3 °C 29.92in /  1013.1hPa Calm   1mph /  1.6km/h 92% 0.00in /  0mm 0 W/m2
01:14 56.3 °F /  13.5 °C 54 °F /  12.2 °C 29.92in /  1013.1hPa Calm     92% 0.00in /  0mm 0 W/m2
01:19 56.3 °F /  13.5 °C 54 °F /  12.2 °C 29.92in /  1013.1hPa WNW 0.1mph /  0.2km/h 1mph /  1.6km/h 92% 0.00in /  0mm 0 W/m2
01:24 56.3 °F /  13.5 °C 54.3 °F /  12.4 °C 29.92in /  1013.1hPa WNW 0.1mph /  0.2km/h 1mph /  1.6km/h 93% 0.00in /  0mm 0 W/m2
01:29 56.2 °F /  13.4 °C 54.2 °F /  12.3 °C 29.92in /  1013.1hPa WNW 0.1mph /  0.2km/h 1mph /  1.6km/h 93% 0.00in /  0mm 0 W/m2
01:34 56.1 °F /  13.4 °C 54.1 °F /  12.3 °C 29.92in /  1013.1hPa WNW 0.4mph /  0.6km/h 2mph /  3.2km/h 93% 0.00in /  0mm 0 W/m2
01:39 56 °F /  13.3 °C 54.1 °F /  12.3 °C 29.92in /  1013.1hPa WNW 0.5mph /  0.8km/h 2mph /  3.2km/h 93% 0.00in /  0mm 0 W/m2
01:44 55.9 °F /  13.3 °C 53.9 °F /  12.2 °C 29.92in /  1013.1hPa WNW 0.3mph /  0.5km/h 2mph /  3.2km/h 93% 0.00in /  0mm 0 W/m2
01:49 55.8 °F /  13.2 °C 53.8 °F /  12.1 °C 29.92in /  1013.1hPa WNW 0.1mph /  0.2km/h 1mph /  1.6km/h 93% 0.00in /  0mm 0 W/m2
01:54 55.8 °F /  13.2 °C 53.8 °F /  12.1 °C 29.92in /  1013.1hPa WNW 0.1mph /  0.2km/h 1mph /  1.6km/h 93% 0.00in /  0mm 0 W/m2
01:59 55.7 °F /  13.2 °C 53.7 °F /  12.1 °C 29.92in /  1013.1hPa Calm   1mph /  1.6km/h 93% 0.00in /  0mm 0 W/m2
02:04 55.5 °F /  13.1 °C 53.5 °F /  11.9 °C 29.92in /  1013.1hPa Calm   1mph /  1.6km/h 93% 0.00in /  0mm 0 W/m2
02:09 55.4 °F /  13 °C 53.4 °F /  11.9 °C 29.92in /  1013.1hPa Calm     93% 0.00in /  0mm 0 W/m2
02:14 55.3 °F /  12.9 °C 53.3 °F /  11.8 °C 29.92in /  1013.1hPa Calm     93% 0.00in /  0mm 0 W/m2
02:19 55.2 °F /  12.9 °C 53.2 °F /  11.8 °C 29.92in /  1013.1hPa Calm     93% 0.00in /  0mm 0 W/m2
02:24 55.2 °F /  12.9 °C 53.2 °F /  11.8 °C 29.92in /  1013.1hPa Calm     93% 0.00in /  0mm 0 W/m2
02:29 55.1 °F /  12.8 °C 53.1 °F /  11.7 °C 29.92in /  1013.1hPa Calm     93% 0.00in /  0mm 0 W/m2
02:34 55 °F /  12.8 °C 53 °F /  11.7 °C 29.92in /  1013.1hPa Calm   1mph /  1.6km/h 93% 0.00in /  0mm 0 W/m2
02:39 54.9 °F /  12.7 °C 52.9 °F /  11.6 °C 29.92in /  1013.1hPa Calm   1mph /  1.6km/h 93% 0.01in /  0.25mm 0 W/m2
02:44 54.9 °F /  12.7 °C 53 °F /  11.7 °C 29.92in /  1013.1hPa Calm     93.2% 0.01in /  0.25mm 0 W/m2
02:49 54.9 °F /  12.7 °C 53.2 °F /  11.8 °C 29.92in /  1013.1hPa Calm     94% 0.01in /  0.25mm 0 W/m2
02:54 54.8 °F /  12.7 °C 53.1 °F /  11.7 °C 29.92in /  1013.1hPa Calm     94% 0.01in /  0.25mm 0 W/m2
02:59 54.7 °F /  12.6 °C 53.1 °F /  11.7 °C 29.92in /  1013.1hPa Calm     94% 0.01in /  0.25mm 0 W/m2
03:04 54.7 °F /  12.6 °C 53.1 °F /  11.7 °C 29.92in /  1013.1hPa Calm     94% 0.01in /  0.25mm 0 W/m2
03:09 54.7 °F /  12.6 °C 53.1 °F /  11.7 °C 29.92in /  1013.1hPa Calm     94% 0.01in /  0.25mm 0 W/m2
03:14 54.7 °F /  12.6 °C 53.1 °F /  11.7 °C 29.92in /  1013.1hPa Calm     94% 0.01in /  0.25mm 0 W/m2
03:19 54.8 °F /  12.7 °C 53.2 °F /  11.8 °C 29.92in /  1013.1hPa Calm     94% 0.01in /  0.25mm 0 W/m2
03:24 54.9 °F /  12.7 °C 53.2 °F /  11.8 °C 29.92in /  1013.1hPa Calm     94% 0.01in /  0.25mm 0 W/m2
03:29 54.9 °F /  12.7 °C 53.2 °F /  11.8 °C 29.92in /  1013.1hPa Calm     94% 0.01in /  0.25mm 0 W/m2
03:34 54.9 °F /  12.7 °C 53.2 °F /  11.8 °C 29.92in /  1013.1hPa WNW 0.3mph /  0.5km/h 1mph /  1.6km/h 94% 0.01in /  0.25mm 0 W/m2
03:39 54.8 °F /  12.7 °C 53.2 °F /  11.8 °C 29.92in /  1013.1hPa WNW 0.4mph /  0.6km/h 2mph /  3.2km/h 94% 0.01in /  0.25mm 0 W/m2
03:44 54.6 °F /  12.6 °C 53 °F /  11.7 °C 29.92in /  1013.1hPa Calm   1mph /  1.6km/h 94% 0.00in /  0mm 0 W/m2
03:49 54.5 °F /  12.5 °C 52.9 °F /  11.6 °C 29.92in /  1013.1hPa Calm     94% 0.00in /  0mm 0 W/m2
03:54 54.5 °F /  12.5 °C 52.9 °F /  11.6 °C 29.92in /  1013.1hPa WNW 0.2mph /  0.3km/h 1mph /  1.6km/h 94% 0.00in /  0mm 0 W/m2
03:59 54.5 °F /  12.5 °C 52.9 °F /  11.6 °C 29.92in /  1013.1hPa WNW 0.5mph /  0.8km/h 2mph /  3.2km/h 94% 0.00in /  0mm 0 W/m2
04:04 54.4 °F /  12.4 °C 52.8 °F /  11.6 °C 29.92in /  1013.1hPa WNW 0.2mph /  0.3km/h 2mph /  3.2km/h 94% 0.00in /  0mm 0 W/m2
04:09 54.3 °F /  12.4 °C 52.7 °F /  11.5 °C 29.92in /  1013.1hPa WNW 0.4mph /  0.6km/h 2mph /  3.2km/h 94% 0.00in /  0mm 0 W/m2
04:14 54.3 °F /  12.4 °C 52.7 °F /  11.5 °C 29.92in /  1013.1hPa Calm   2mph /  3.2km/h 94% 0.00in /  0mm 0 W/m2
04:19 54.4 °F /  12.4 °C 52.8 °F /  11.6 °C 29.92in /  1013.1hPa Calm     94% 0.00in /  0mm 0 W/m2
04:24 54.5 °F /  12.5 °C 52.9 °F /  11.6 °C 29.92in /  1013.1hPa Calm     94% 0.00in /  0mm 0 W/m2
04:29 54.5 °F /  12.5 °C 52.9 °F /  11.6 °C 29.92in /  1013.1hPa Calm     94% 0.00in /  0mm 0 W/m2
04:34 54.5 °F /  12.5 °C 52.9 °F /  11.6 °C 29.92in /  1013.1hPa Calm     94% 0.00in /  0mm 0 W/m2
04:39 54.5 °F /  12.5 °C 52.9 °F /  11.6 °C 29.92in /  1013.1hPa Calm     94% 0.00in /  0mm 0 W/m2
04:44 54.5 °F /  12.5 °C 52.9 °F /  11.6 °C 29.92in /  1013.1hPa Calm     94% 0.00in /  0mm 0 W/m2
04:49 54.5 °F /  12.5 °C 52.9 °F /  11.6 °C 29.92in /  1013.1hPa Calm     94% 0.00in /  0mm 0 W/m2
04:54 54.5 °F /  12.5 °C 52.9 °F /  11.6 °C 29.92in /  1013.1hPa Calm     94% 0.00in /  0mm 0 W/m2
04:59 54.5 °F /  12.5 °C 52.9 °F /  11.6 °C 29.92in /  1013.1hPa Calm     94% 0.00in /  0mm 0 W/m2
05:04 54.5 °F /  12.5 °C 52.9 °F /  11.6 °C 29.92in /  1013.1hPa Calm     94% 0.00in /  0mm 0 W/m2
05:09 54.5 °F /  12.5 °C 52.9 °F /  11.6 °C 29.92in /  1013.1hPa Calm     94% 0.00in /  0mm 0 W/m2
05:14 54.5 °F /  12.5 °C 52.9 °F /  11.6 °C 29.92in /  1013.1hPa Calm     94% 0.00in /  0mm 0 W/m2
05:19 54.5 °F /  12.5 °C 52.9 °F /  11.6 °C 29.92in /  1013.1hPa Calm     94% 0.00in /  0mm 0 W/m2
05:24 54.3 °F /  12.4 °C 52.7 °F /  11.5 °C 29.92in /  1013.1hPa Calm     94% 0.00in /  0mm 0 W/m2
05:29 54.3 °F /  12.4 °C 52.7 °F /  11.5 °C 29.93in /  1013.4hPa Calm     94% 0.00in /  0mm 0 W/m2
05:34 54.3 °F /  12.4 °C 52.7 °F /  11.5 °C 29.93in /  1013.4hPa Calm     94% 0.00in /  0mm 0 W/m2
05:39 54.2 °F /  12.3 °C 52.6 °F /  11.4 °C 29.93in /  1013.4hPa Calm   1mph /  1.6km/h 94.4% 0.00in /  0mm 0 W/m2
05:44 54.2 °F /  12.3 °C 52.8 °F /  11.6 °C 29.93in /  1013.4hPa Calm   1mph /  1.6km/h 95% 0.00in /  0mm 0 W/m2
05:49 54.1 °F /  12.3 °C 52.7 °F /  11.5 °C 29.92in /  1013.1hPa Calm     95% 0.00in /  0mm 0 W/m2
05:54 54.1 °F /  12.3 °C 52.6 °F /  11.4 °C 29.92in /  1013.1hPa Calm     94.6% 0.00in /  0mm 0 W/m2
05:59 54.1 °F /  12.3 °C 52.6 °F /  11.4 °C 29.93in /  1013.4hPa Calm     94.4% 0.00in /  0mm 5 W/m2
06:04 54.1 °F /  12.3 °C 52.6 °F /  11.4 °C 29.93in /  1013.4hPa Calm     94.4% 0.00in /  0mm 7 W/m2
06:09 54.1 °F /  12.3 °C 52.6 °F /  11.4 °C 29.93in /  1013.4hPa Calm     94.4% 0.00in /  0mm 9 W/m2
06:14 54.1 °F /  12.3 °C 52.5 °F /  11.4 °C 29.93in /  1013.4hPa Calm     94% 0.00in /  0mm 12 W/m2
06:19 54.1 °F /  12.3 °C 52.6 °F /  11.4 °C 29.93in /  1013.4hPa Calm     94.5% 0.00in /  0mm 16 W/m2
06:24 54.2 °F /  12.3 °C 52.7 °F /  11.5 °C 29.93in /  1013.4hPa Calm     94.8% 0.00in /  0mm 18 W/m2
06:29 54.3 °F /  12.4 °C 52.9 °F /  11.6 °C 29.93in /  1013.4hPa Calm     95% 0.00in /  0mm 23 W/m2
06:34 54.2 °F /  12.3 °C 52.8 °F /  11.6 °C 29.93in /  1013.4hPa Calm     95% 0.00in /  0mm 30 W/m2
06:39 54.2 °F /  12.3 °C 52.8 °F /  11.6 °C 29.93in /  1013.4hPa Calm     95% 0.00in /  0mm 33 W/m2
06:44 54.3 °F /  12.4 °C 52.9 °F /  11.6 °C 29.93in /  1013.4hPa WNW 0.1mph /  0.2km/h 1mph /  1.6km/h 95% 0.00in /  0mm 37 W/m2
06:49 54.3 °F /  12.4 °C 52.9 °F /  11.6 °C 29.93in /  1013.4hPa Calm     95% 0.00in /  0mm 42 W/m2
06:54 54.3 °F /  12.4 °C 52.9 °F /  11.6 °C 29.93in /  1013.4hPa Calm     95% 0.00in /  0mm 44 W/m2
06:59 54.3 °F /  12.4 °C 52.9 °F /  11.6 °C 29.93in /  1013.4hPa Calm     95% 0.00in /  0mm 58 W/m2
07:04 54.3 °F /  12.4 °C 52.9 °F /  11.6 °C 29.93in /  1013.4hPa Calm     95% 0.00in /  0mm 62 W/m2
07:09 54.3 °F /  12.4 °C 52.9 °F /  11.6 °C 29.93in /  1013.4hPa Calm     95% 0.00in /  0mm 62 W/m2
07:14 54.4 °F /  12.4 °C 53 °F /  11.7 °C 29.93in /  1013.4hPa Calm     95% 0.00in /  0mm 65 W/m2
07:19 54.5 °F /  12.5 °C 53.1 °F /  11.7 °C 29.93in /  1013.4hPa Calm     95% 0.00in /  0mm 74 W/m2
07:24 54.5 °F /  12.5 °C 53.1 °F /  11.7 °C 29.93in /  1013.4hPa Calm     95% 0.00in /  0mm 76 W/m2
07:29 54.5 °F /  12.5 °C 53.1 °F /  11.7 °C 29.93in /  1013.4hPa Calm   1mph /  1.6km/h 95% 0.00in /  0mm 74 W/m2
07:34 54.6 °F /  12.6 °C 53.1 °F /  11.7 °C 29.94in /  1013.8hPa Calm   1mph /  1.6km/h 95% 0.00in /  0mm 76 W/m2
07:39 54.9 °F /  12.7 °C 53.4 °F /  11.9 °C 29.94in /  1013.8hPa Calm     95% 0.00in /  0mm 113 W/m2
07:44 54.9 °F /  12.7 °C 53.5 °F /  11.9 °C 29.94in /  1013.8hPa Calm     95% 0.00in /  0mm 132 W/m2
07:49 55 °F /  12.8 °C 53.6 °F /  12 °C 29.94in /  1013.8hPa Calm     95% 0.00in /  0mm 151 W/m2
07:54 55.2 °F /  12.9 °C 53.8 °F /  12.1 °C 29.94in /  1013.8hPa WNW 0.3mph /  0.5km/h 1mph /  1.6km/h 95% 0.00in /  0mm 158 W/m2
07:59 55.2 °F /  12.9 °C 53.8 °F /  12.1 °C 29.94in /  1013.8hPa Calm   1mph /  1.6km/h 95% 0.00in /  0mm 158 W/m2
08:04 55.4 °F /  13 °C 54 °F /  12.2 °C 29.95in /  1014.1hPa Calm   1mph /  1.6km/h 95% 0.00in /  0mm 139 W/m2
08:09 55.4 °F /  13 °C 54 °F /  12.2 °C 29.95in /  1014.1hPa WNW 0.5mph /  0.8km/h 2mph /  3.2km/h 95% 0.00in /  0mm 125 W/m2
08:14 55.5 °F /  13.1 °C 54.1 °F /  12.3 °C 29.95in /  1014.1hPa WNW 2.3mph /  3.7km/h 4mph /  6.4km/h 95% 0.00in /  0mm 121 W/m2
08:19 55.5 °F /  13.1 °C 54.1 °F /  12.3 °C 29.95in /  1014.1hPa WNW 1.8mph /  2.9km/h 4mph /  6.4km/h 95% 0.00in /  0mm 111 W/m2
08:24 55.6 °F /  13.1 °C 54.1 °F /  12.3 °C 29.95in /  1014.1hPa WNW 1mph /  1.6km/h 4mph /  6.4km/h 95% 0.00in /  0mm 107 W/m2
08:29 55.8 °F /  13.2 °C 54.3 °F /  12.4 °C 29.95in /  1014.1hPa WNW 1mph /  1.6km/h 3mph /  4.8km/h 95% 0.00in /  0mm 139 W/m2
08:34 55.8 °F /  13.2 °C 54.3 °F /  12.4 °C 29.95in /  1014.1hPa WNW 0.6mph /  1km/h 3mph /  4.8km/h 95% 0.00in /  0mm 169 W/m2
08:39 55.9 °F /  13.3 °C 54.4 °F /  12.4 °C 29.95in /  1014.1hPa Calm   2mph /  3.2km/h 95% 0.00in /  0mm 218 W/m2
08:44 55.9 °F /  13.3 °C 54.5 °F /  12.5 °C 29.95in /  1014.1hPa WNW 1.6mph /  2.6km/h 3mph /  4.8km/h 95% 0.00in /  0mm 204 W/m2
08:49 55.7 °F /  13.2 °C 54.2 °F /  12.3 °C 29.95in /  1014.1hPa Calm   3mph /  4.8km/h 95% 0.00in /  0mm 165 W/m2
08:54 55.8 °F /  13.2 °C 54.3 °F /  12.4 °C 29.95in /  1014.1hPa WNW 0.3mph /  0.5km/h 2mph /  3.2km/h 95% 0.00in /  0mm 162 W/m2
08:59 55.8 °F /  13.2 °C 54.3 °F /  12.4 °C 29.95in /  1014.1hPa WNW 0.1mph /  0.2km/h 2mph /  3.2km/h 95% 0.00in /  0mm 169 W/m2
09:04 56 °F /  13.3 °C 54.5 °F /  12.5 °C 29.96in /  1014.4hPa Calm   1mph /  1.6km/h 94.3% 0.00in /  0mm 172 W/m2
09:09 56.3 °F /  13.5 °C 54.8 °F /  12.7 °C 29.96in /  1014.4hPa WNW 0.8mph /  1.3km/h 3mph /  4.8km/h 94.4% 0.00in /  0mm 181 W/m2
09:14 56 °F /  13.3 °C 54.4 °F /  12.4 °C 29.96in /  1014.4hPa WNW 1.1mph /  1.8km/h 4mph /  6.4km/h 94% 0.00in /  0mm 185 W/m2
09:19 56.2 °F /  13.4 °C 54.6 °F /  12.6 °C 29.96in /  1014.4hPa WNW 0.1mph /  0.2km/h 2mph /  3.2km/h 94% 0.00in /  0mm 207 W/m2
09:24 56.5 °F /  13.6 °C 54.6 °F /  12.6 °C 29.96in /  1014.4hPa WNW 1.2mph /  1.9km/h 4mph /  6.4km/h 93.2% 0.00in /  0mm 218 W/m2
09:29 56.7 °F /  13.7 °C 54.6 °F /  12.6 °C 29.96in /  1014.4hPa WNW 1.5mph /  2.4km/h 4mph /  6.4km/h 92.7% 0.00in /  0mm 290 W/m2
09:34 57.2 °F /  14 °C 54.7 °F /  12.6 °C 29.96in /  1014.4hPa WNW 0.4mph /  0.6km/h 4mph /  6.4km/h 91.2% 0.00in /  0mm 362 W/m2
09:39 57.8 °F /  14.3 °C 54.3 °F /  12.4 °C 29.96in /  1014.4hPa WNW 2.1mph /  3.4km/h 5mph /  8km/h 88.2% 0.00in /  0mm 522 W/m2
09:44 58.4 °F /  14.7 °C 53.6 °F /  12 °C 29.96in /  1014.4hPa NW 3.8mph /  6.1km/h 7mph /  11.3km/h 84.2% 0.00in /  0mm 554 W/m2
09:49 58.6 °F /  14.8 °C 53.1 °F /  11.7 °C 29.96in /  1014.4hPa NW 3.5mph /  5.6km/h 8mph /  12.9km/h 81.5% 0.00in /  0mm 554 W/m2
09:54 58.7 °F /  14.8 °C 53 °F /  11.7 °C 29.96in /  1014.4hPa NNW 3.1mph /  5km/h 8mph /  12.9km/h 81% 0.00in /  0mm 283 W/m2
09:59 58.6 °F /  14.8 °C 52.8 °F /  11.6 °C 29.96in /  1014.4hPa NNW 2.4mph /  3.9km/h 6mph /  9.7km/h 81% 0.00in /  0mm 316 W/m2
10:04 58.6 °F /  14.8 °C 52.8 °F /  11.6 °C 29.96in /  1014.4hPa NNW 2.6mph /  4.2km/h 6mph /  9.7km/h 81% 0.00in /  0mm 657 W/m2
10:09 58.8 °F /  14.9 °C 52.5 °F /  11.4 °C 29.96in /  1014.4hPa NW 4mph /  6.4km/h 9mph /  14.5km/h 79.6% 0.00in /  0mm 657 W/m2
10:14 59 °F /  15 °C 52.4 °F /  11.3 °C 29.96in /  1014.4hPa NW 3.4mph /  5.5km/h 9mph /  14.5km/h 78.6% 0.00in /  0mm 566 W/m2
10:19 59.4 °F /  15.2 °C 51.9 °F /  11.1 °C 29.96in /  1014.4hPa NW 3.5mph /  5.6km/h 9mph /  14.5km/h 76% 0.00in /  0mm 538 W/m2
10:24 59.8 °F /  15.4 °C 51.8 °F /  11 °C 29.96in /  1014.4hPa WNW 3.3mph /  5.3km/h 9mph /  14.5km/h 74.7% 0.00in /  0mm 450 W/m2
10:29 59.8 °F /  15.4 °C 51.7 °F /  10.9 °C 29.97in /  1014.8hPa NNW 4.5mph /  7.2km/h 8mph /  12.9km/h 74.4% 0.00in /  0mm 371 W/m2
10:34 59.4 °F /  15.2 °C 51.3 °F /  10.7 °C 29.97in /  1014.8hPa NNW 3.8mph /  6.1km/h 8mph /  12.9km/h 74.3% 0.00in /  0mm 448 W/m2
10:39 59.6 °F /  15.3 °C 51.4 °F /  10.8 °C 29.97in /  1014.8hPa NW 3.4mph /  5.5km/h 7mph /  11.3km/h 74.4% 0.00in /  0mm 547 W/m2
10:44 60.5 °F /  15.8 °C 52.1 °F /  11.2 °C 29.97in /  1014.8hPa NW 2mph /  3.2km/h 6mph /  9.7km/h 73.8% 0.00in /  0mm 577 W/m2
10:49 60.8 °F /  16 °C 51.4 °F /  10.8 °C 29.97in /  1014.8hPa NW 4.1mph /  6.6km/h 7mph /  11.3km/h 71.3% 0.00in /  0mm 519 W/m2
10:54 60.4 °F /  15.8 °C 51.3 °F /  10.7 °C 29.97in /  1014.8hPa WNW 1.8mph /  2.9km/h 7mph /  11.3km/h 71.5% 0.00in /  0mm 346 W/m2
10:59 60.5 °F /  15.8 °C 51.4 °F /  10.8 °C 29.97in /  1014.8hPa WNW 3.2mph /  5.1km/h 7mph /  11.3km/h 71.8% 0.00in /  0mm 338 W/m2
11:04 60.3 °F /  15.7 °C 50.9 °F /  10.5 °C 29.97in /  1014.8hPa NW 4.4mph /  7.1km/h 9mph /  14.5km/h 71.2% 0.00in /  0mm 322 W/m2
11:09 60.1 °F /  15.6 °C 50.9 °F /  10.5 °C 29.97in /  1014.8hPa NW 1.5mph /  2.4km/h 7mph /  11.3km/h 71.5% 0.00in /  0mm 322 W/m2
11:14 60.4 °F /  15.8 °C 51.4 °F /  10.8 °C 29.97in /  1014.8hPa NNW 2.2mph /  3.5km/h 6mph /  9.7km/h 72% 0.00in /  0mm 279 W/m2
11:19 60.5 °F /  15.8 °C 51.4 °F /  10.8 °C 29.97in /  1014.8hPa NNW 3.2mph /  5.1km/h 7mph /  11.3km/h 71.8% 0.00in /  0mm 279 W/m2
11:24 60.4 °F /  15.8 °C 51.2 °F /  10.7 °C 29.97in /  1014.8hPa WNW 4.2mph /  6.8km/h 9mph /  14.5km/h 71.6% 0.00in /  0mm 338 W/m2
11:29 60.2 °F /  15.7 °C 50.8 °F /  10.4 °C 29.97in /  1014.8hPa WNW 3.9mph /  6.3km/h 9mph /  14.5km/h 71% 0.00in /  0mm 290 W/m2
11:34 60.1 °F /  15.6 °C 50.7 °F /  10.4 °C 29.97in /  1014.8hPa NW 1.3mph /  2.1km/h 9mph /  14.5km/h 71.1% 0.00in /  0mm 355 W/m2
11:39 60.4 °F /  15.8 °C 50.9 °F /  10.5 °C 29.97in /  1014.8hPa NW 1.9mph /  3.1km/h 5mph /  8km/h 70.8% 0.00in /  0mm 768 W/m2
11:44 62 °F /  16.7 °C 51.9 °F /  11.1 °C 29.97in /  1014.8hPa NW 0.9mph /  1.4km/h 3mph /  4.8km/h 69.5% 0.00in /  0mm 798 W/m2
11:49 62.5 °F /  16.9 °C 51.3 °F /  10.7 °C 29.97in /  1014.8hPa NW 1.8mph /  2.9km/h 6mph /  9.7km/h 66.7% 0.00in /  0mm 877 W/m2
11:54 62.5 °F /  16.9 °C 51.4 °F /  10.8 °C 29.97in /  1014.8hPa NW 0.9mph /  1.4km/h 4mph /  6.4km/h 67.1% 0.00in /  0mm 784 W/m2
11:59 62.6 °F /  17 °C 51.1 °F /  10.6 °C 29.96in /  1014.4hPa NW 1.4mph /  2.3km/h 6mph /  9.7km/h 66% 0.00in /  0mm 399 W/m2
12:04 62.6 °F /  17 °C 50.6 °F /  10.3 °C 29.96in /  1014.4hPa NW 4.9mph /  7.9km/h 10mph /  16.1km/h 64.8% 0.00in /  0mm 854 W/m2
12:09 62.8 °F /  17.1 °C 51.2 °F /  10.7 °C 29.96in /  1014.4hPa NW 4.5mph /  7.2km/h 11mph /  17.7km/h 65.8% 0.00in /  0mm 404 W/m2
12:14 62.1 °F /  16.7 °C 50.5 °F /  10.3 °C 29.97in /  1014.8hPa NNW 4.6mph /  7.4km/h 11mph /  17.7km/h 65.6% 0.00in /  0mm 246 W/m2
12:19 61.3 °F /  16.3 °C 49.7 °F /  9.8 °C 29.97in /  1014.8hPa NW 5.3mph /  8.5km/h 10mph /  16.1km/h 65.7% 0.00in /  0mm 234 W/m2
12:24 61.7 °F /  16.5 °C 49.7 °F /  9.8 °C 29.97in /  1014.8hPa NW 2.4mph /  3.9km/h 9mph /  14.5km/h 64.8% 0.00in /  0mm 341 W/m2
12:29 62.3 °F /  16.8 °C 50 °F /  10 °C 29.97in /  1014.8hPa NW 7.3mph /  11.7km/h 14mph /  22.5km/h 64.2% 0.00in /  0mm 436 W/m2
12:34 62.4 °F /  16.9 °C 50.9 °F /  10.5 °C 29.97in /  1014.8hPa WNW 5.4mph /  8.7km/h 14mph /  22.5km/h 66% 0.00in /  0mm 415 W/m2
12:39 62.4 °F /  16.9 °C 50.8 °F /  10.4 °C 29.97in /  1014.8hPa WNW 7.3mph /  11.7km/h 12mph /  19.3km/h 65.6% 0.01in /  0.25mm 364 W/m2
12:44 62.1 °F /  16.7 °C 50.6 °F /  10.3 °C 29.97in /  1014.8hPa NW 5.4mph /  8.7km/h 12mph /  19.3km/h 66% 0.01in /  0.25mm 329 W/m2
12:49 61.7 °F /  16.5 °C 50.7 °F /  10.4 °C 29.97in /  1014.8hPa WNW 6.5mph /  10.5km/h 12mph /  19.3km/h 66.9% 0.01in /  0.25mm 211 W/m2
12:54 61.6 °F /  16.4 °C 50.9 °F /  10.5 °C 29.97in /  1014.8hPa WNW 5.7mph /  9.2km/h 12mph /  19.3km/h 67.8% 0.01in /  0.25mm 278 W/m2
12:59 61.5 °F /  16.4 °C 50.6 °F /  10.3 °C 29.97in /  1014.8hPa WNW 7.6mph /  12.2km/h 13mph /  20.9km/h 67.3% 0.01in /  0.25mm 346 W/m2
13:04 61.5 °F /  16.4 °C 50.4 °F /  10.2 °C 29.97in /  1014.8hPa NW 6.1mph /  9.8km/h 13mph /  20.9km/h 66.8% 0.01in /  0.25mm 986 W/m2
13:09 62.7 °F /  17.1 °C 51 °F /  10.6 °C 29.97in /  1014.8hPa WNW 5.1mph /  8.2km/h 13mph /  20.9km/h 65.8% 0.01in /  0.25mm 954 W/m2
13:14 62.7 °F /  17.1 °C 50.3 °F /  10.2 °C 29.97in /  1014.8hPa WNW 7.5mph /  12.1km/h 13mph /  20.9km/h 64% 0.01in /  0.25mm 954 W/m2
13:19 61.7 °F /  16.5 °C 50.8 °F /  10.4 °C 29.97in /  1014.8hPa NW 5.9mph /  9.5km/h 12mph /  19.3km/h 67.5% 0.01in /  0.25mm 141 W/m2
13:24 60.7 °F /  15.9 °C 51.2 °F /  10.7 °C 29.97in /  1014.8hPa NW 6.9mph /  11.1km/h 13mph /  20.9km/h 71% 0.01in /  0.25mm 241 W/m2
13:29 60 °F /  15.6 °C 51.4 °F /  10.8 °C 29.97in /  1014.8hPa NW 4.9mph /  7.9km/h 9mph /  14.5km/h 73.1% 0.01in /  0.25mm 392 W/m2
13:34 59.9 °F /  15.5 °C 51.6 °F /  10.9 °C 29.97in /  1014.8hPa NW 4mph /  6.4km/h 9mph /  14.5km/h 74% 0.01in /  0.25mm 568 W/m2
13:39 60.7 °F /  15.9 °C 52.1 °F /  11.2 °C 29.97in /  1014.8hPa NW 6.8mph /  10.9km/h 14mph /  22.5km/h 73.2% 0.00in /  0mm 814 W/m2
13:44 61.5 °F /  16.4 °C 51.5 °F /  10.8 °C 29.97in /  1014.8hPa NW 6.9mph /  11.1km/h 15mph /  24.1km/h 69.8% 0.00in /  0mm 986 W/m2
13:49 62.5 °F /  16.9 °C 51.8 °F /  11 °C 29.97in /  1014.8hPa WNW 7.1mph /  11.4km/h 15mph /  24.1km/h 68% 0.00in /  0mm 997 W/m2
13:54 62.6 °F /  17 °C 51.7 °F /  10.9 °C 29.97in /  1014.8hPa WNW 5.9mph /  9.5km/h 14mph /  22.5km/h 67.7% 0.00in /  0mm 923 W/m2
13:59 63 °F /  17.2 °C 51.3 °F /  10.7 °C 29.97in /  1014.8hPa WNW 5.4mph /  8.7km/h 12mph /  19.3km/h 65.6% 0.00in /  0mm 896 W/m2
14:04 63.4 °F /  17.4 °C 50.9 °F /  10.5 °C 29.97in /  1014.8hPa NW 6.1mph /  9.8km/h 10mph /  16.1km/h 63.8% 0.00in /  0mm 561 W/m2
14:09 63.2 °F /  17.3 °C 49.5 °F /  9.7 °C 29.97in /  1014.8hPa NW 8.2mph /  13.2km/h 13mph /  20.9km/h 61% 0.00in /  0mm 912 W/m2
14:14 63.4 °F /  17.4 °C 50 °F /  10 °C 29.97in /  1014.8hPa NNW 10.8mph /  17.4km/h 18mph /  29km/h 61.7% 0.00in /  0mm 954 W/m2
14:19 62.3 °F /  16.8 °C 50.8 °F /  10.4 °C 29.98in /  1015.1hPa NNW 7.2mph /  11.6km/h 16mph /  25.7km/h 66.2% 0.00in /  0mm 963 W/m2
14:24 61.6 °F /  16.4 °C 50.6 °F /  10.3 °C 29.98in /  1015.1hPa North 6.7mph /  10.8km/h 12mph /  19.3km/h 66.9% 0.00in /  0mm 281 W/m2
14:29 60.9 °F /  16.1 °C 50.3 °F /  10.2 °C 29.98in /  1015.1hPa North 5.3mph /  8.5km/h 12mph /  19.3km/h 68% 0.00in /  0mm 214 W/m2
14:34 61 °F /  16.1 °C 50.5 °F /  10.3 °C 29.98in /  1015.1hPa NW 3.1mph /  5km/h 10mph /  16.1km/h 68.5% 0.00in /  0mm 844 W/m2
14:39 61.7 °F /  16.5 °C 50.6 °F /  10.3 °C 29.98in /  1015.1hPa NNW 5.6mph /  9km/h 10mph /  16.1km/h 66.9% 0.00in /  0mm 795 W/m2
14:44 62.8 °F /  17.1 °C 50.5 °F /  10.3 °C 29.98in /  1015.1hPa NW 6mph /  9.7km/h 13mph /  20.9km/h 64.1% 0.00in /  0mm 784 W/m2
14:49 63.3 °F /  17.4 °C 49.6 °F /  9.8 °C 29.98in /  1015.1hPa North 6.2mph /  10km/h 13mph /  20.9km/h 61% 0.00in /  0mm 784 W/m2
14:54 63.7 °F /  17.6 °C 49.4 °F /  9.7 °C 29.98in /  1015.1hPa West 6.2mph /  10km/h 12mph /  19.3km/h 59.8% 0.00in /  0mm 775 W/m2
14:59 64.1 °F /  17.8 °C 49.8 °F /  9.9 °C 29.98in /  1015.1hPa WNW 5.3mph /  8.5km/h 11mph /  17.7km/h 59.5% 0.00in /  0mm 796 W/m2
15:04 65 °F /  18.3 °C 49.9 °F /  9.9 °C 29.97in /  1014.8hPa WNW 4.2mph /  6.8km/h 11mph /  17.7km/h 58.2% 0.00in /  0mm 788 W/m2
15:09 65.3 °F /  18.5 °C 47.9 °F /  8.8 °C 29.98in /  1015.1hPa WNW 7.9mph /  12.7km/h 13mph /  20.9km/h 53.3% 0.00in /  0mm 775 W/m2
15:14 64.9 °F /  18.3 °C 47.3 °F /  8.5 °C 29.98in /  1015.1hPa NW 9.4mph /  15.1km/h 13mph /  20.9km/h 52.9% 0.00in /  0mm 777 W/m2
15:19 64.5 °F /  18.1 °C 47.2 °F /  8.4 °C 29.98in /  1015.1hPa NW 5.1mph /  8.2km/h 13mph /  20.9km/h 53.3% 0.00in /  0mm 814 W/m2
15:24 65.1 °F /  18.4 °C 47.4 °F /  8.6 °C 29.98in /  1015.1hPa WNW 7.8mph /  12.6km/h 15mph /  24.1km/h 52.5% 0.00in /  0mm 833 W/m2
15:29 65.2 °F /  18.4 °C 46.9 °F /  8.3 °C 29.97in /  1014.8hPa WNW 8.3mph /  13.4km/h 15mph /  24.1km/h 51.5% 0.00in /  0mm 847 W/m2
15:34 65.1 °F /  18.4 °C 47.5 °F /  8.6 °C 29.98in /  1015.1hPa WNW 6.9mph /  11.1km/h 15mph /  24.1km/h 53% 0.00in /  0mm 847 W/m2
15:39 64.3 °F /  17.9 °C 47.6 °F /  8.7 °C 29.98in /  1015.1hPa WNW 7.1mph /  11.4km/h 15mph /  24.1km/h 54.6% 0.00in /  0mm 236 W/m2
15:44 63.7 °F /  17.6 °C 47.8 °F /  8.8 °C 29.98in /  1015.1hPa WNW 8.2mph /  13.2km/h 15mph /  24.1km/h 56.2% 0.00in /  0mm 163 W/m2
15:49 63.1 °F /  17.3 °C 48.1 °F /  8.9 °C 29.98in /  1015.1hPa WNW 6.7mph /  10.8km/h 12mph /  19.3km/h 57.8% 0.00in /  0mm 162 W/m2
15:54 63 °F /  17.2 °C 48.5 °F /  9.2 °C 29.98in /  1015.1hPa WNW 6.1mph /  9.8km/h 12mph /  19.3km/h 59% 0.00in /  0mm 162 W/m2
15:59 63 °F /  17.2 °C 48.8 °F /  9.3 °C 29.98in /  1015.1hPa WNW 4.4mph /  7.1km/h 12mph /  19.3km/h 59.9% 0.00in /  0mm 162 W/m2
16:04 63 °F /  17.2 °C 48.4 °F /  9.1 °C 29.98in /  1015.1hPa WNW 6.7mph /  10.8km/h 11mph /  17.7km/h 58.9% 0.00in /  0mm 193 W/m2
16:09 62.9 °F /  17.2 °C 49 °F /  9.4 °C 29.98in /  1015.1hPa West 6.7mph /  10.8km/h 14mph /  22.5km/h 60.5% 0.00in /  0mm 230 W/m2
16:14 62.7 °F /  17.1 °C 50.4 °F /  10.2 °C 29.98in /  1015.1hPa West 6.1mph /  9.8km/h 14mph /  22.5km/h 64.1% 0.00in /  0mm 225 W/m2
16:19 62.7 °F /  17.1 °C 50.8 °F /  10.4 °C 29.98in /  1015.1hPa West 9.5mph /  15.3km/h 18mph /  29km/h 65.1% 0.00in /  0mm 162 W/m2
16:24 62.5 °F /  16.9 °C 50.9 °F /  10.5 °C 29.98in /  1015.1hPa WNW 10.1mph /  16.3km/h 16mph /  25.7km/h 65.8% 0.00in /  0mm 250 W/m2
16:29 62.3 °F /  16.8 °C 51.7 °F /  10.9 °C 29.99in /  1015.5hPa NW 7.8mph /  12.6km/h 18mph /  29km/h 68.2% 0.01in /  0.25mm 209 W/m2
16:34 60.6 °F /  15.9 °C 51 °F /  10.6 °C 29.99in /  1015.5hPa NNW 5mph /  8km/h 10mph /  16.1km/h 70.4% 0.01in /  0.25mm 185 W/m2
16:39 59.5 °F /  15.3 °C 50.7 °F /  10.4 °C 29.98in /  1015.1hPa North 3.5mph /  5.6km/h 11mph /  17.7km/h 72.5% 0.01in /  0.25mm 185 W/m2
16:44 58.8 °F /  14.9 °C 50.2 °F /  10.1 °C 29.99in /  1015.5hPa North 2mph /  3.2km/h 11mph /  17.7km/h 73% 0.01in /  0.25mm 325 W/m2
16:49 59.3 °F /  15.2 °C 50.9 °F /  10.5 °C 29.98in /  1015.1hPa WNW 4.3mph /  6.9km/h 11mph /  17.7km/h 73.5% 0.01in /  0.25mm 325 W/m2
16:54 60.1 °F /  15.6 °C 51.2 °F /  10.7 °C 29.99in /  1015.5hPa WNW 6.9mph /  11.1km/h 19mph /  30.6km/h 72.4% 0.01in /  0.25mm 258 W/m2
16:59 61.1 °F /  16.2 °C 51.3 °F /  10.7 °C 29.99in /  1015.5hPa WNW 11.1mph /  17.9km/h 22mph /  35.4km/h 70.1% 0.01in /  0.25mm 364 W/m2
17:04 61.5 °F /  16.4 °C 51.1 °F /  10.6 °C 29.99in /  1015.5hPa WNW 7.3mph /  11.7km/h 17mph /  27.4km/h 68.4% 0.01in /  0.25mm 323 W/m2
17:09 62.1 °F /  16.7 °C 50.9 °F /  10.5 °C 29.99in /  1015.5hPa WNW 10.4mph /  16.7km/h 18mph /  29km/h 66.9% 0.01in /  0.25mm 499 W/m2
17:14 62.6 °F /  17 °C 51.3 °F /  10.7 °C 29.99in /  1015.5hPa WNW 7.1mph /  11.4km/h 15mph /  24.1km/h 66.5% 0.01in /  0.25mm 580 W/m2
17:19 63.3 °F /  17.4 °C 51.2 °F /  10.7 °C 29.99in /  1015.5hPa WNW 9.1mph /  14.6km/h 16mph /  25.7km/h 64.7% 0.01in /  0.25mm 566 W/m2
17:24 63.5 °F /  17.5 °C 50.7 °F /  10.4 °C 29.99in /  1015.5hPa West 12.2mph /  19.6km/h 19mph /  30.6km/h 63% 0.01in /  0.25mm 522 W/m2
17:29 63.3 °F /  17.4 °C 50.7 °F /  10.4 °C 29.99in /  1015.5hPa WNW 9.9mph /  15.9km/h 19mph /  30.6km/h 63.4% 0.01in /  0.25mm 501 W/m2
17:34 63.8 °F /  17.7 °C 51.3 °F /  10.7 °C 29.99in /  1015.5hPa WNW 7.9mph /  12.7km/h 15mph /  24.1km/h 64% 0.00in /  0mm 496 W/m2
17:39 63.9 °F /  17.7 °C 50.9 °F /  10.5 °C 29.99in /  1015.5hPa WNW 8.2mph /  13.2km/h 18mph /  29km/h 62.6% 0.00in /  0mm 448 W/m2
17:44 63.9 °F /  17.7 °C 50.8 °F /  10.4 °C 29.99in /  1015.5hPa WNW 8.7mph /  14km/h 17mph /  27.4km/h 62.6% 0.00in /  0mm 434 W/m2
17:49 63.6 °F /  17.6 °C 51.6 °F /  10.9 °C 29.99in /  1015.5hPa WNW 9.1mph /  14.6km/h 18mph /  29km/h 64.9% 0.00in /  0mm 413 W/m2
17:54 63.5 °F /  17.5 °C 52.2 °F /  11.2 °C 29.99in /  1015.5hPa WNW 8.4mph /  13.5km/h 17mph /  27.4km/h 66.5% 0.00in /  0mm 424 W/m2
17:59 63.4 °F /  17.4 °C 52.2 °F /  11.2 °C 29.99in /  1015.5hPa WNW 8mph /  12.9km/h 16mph /  25.7km/h 66.8% 0.00in /  0mm 415 W/m2
18:04 63.5 °F /  17.5 °C 52.3 °F /  11.3 °C 29.99in /  1015.5hPa WNW 8.6mph /  13.8km/h 21mph /  33.8km/h 67% 0.00in /  0mm 367 W/m2
18:09 63.1 °F /  17.3 °C 52 °F /  11.1 °C 29.99in /  1015.5hPa WNW 9mph /  14.5km/h 15mph /  24.1km/h 67% 0.00in /  0mm 343 W/m2
18:14 62.5 °F /  16.9 °C 51.4 °F /  10.8 °C 30.00in /  1015.8hPa West 9.8mph /  15.8km/h 17mph /  27.4km/h 67% 0.00in /  0mm 334 W/m2
18:19 62.4 °F /  16.9 °C 51.3 °F /  10.7 °C 30.00in /  1015.8hPa WNW 9.5mph /  15.3km/h 17mph /  27.4km/h 67% 0.00in /  0mm 315 W/m2
18:24 62.4 °F /  16.9 °C 51.3 °F /  10.7 °C 30.00in /  1015.8hPa WNW 9.6mph /  15.4km/h 18mph /  29km/h 67% 0.00in /  0mm 306 W/m2
18:29 62.2 °F /  16.8 °C 50.9 °F /  10.5 °C 30.00in /  1015.8hPa WNW 10.4mph /  16.7km/h 19mph /  30.6km/h 66.5% 0.00in /  0mm 274 W/m2
18:34 62.1 °F /  16.7 °C 50.5 °F /  10.3 °C 30.00in /  1015.8hPa WNW 9.1mph /  14.6km/h 17mph /  27.4km/h 66% 0.00in /  0mm 267 W/m2
18:39 61.7 °F /  16.5 °C 50.4 °F /  10.2 °C 30.00in /  1015.8hPa West 8.3mph /  13.4km/h 18mph /  29km/h 66.3% 0.00in /  0mm 246 W/m2
18:44 61.6 °F /  16.4 °C 50.5 °F /  10.3 °C 30.00in /  1015.8hPa West 7.2mph /  11.6km/h 15mph /  24.1km/h 66.7% 0.00in /  0mm 202 W/m2
18:49 61.5 °F /  16.4 °C 50.2 °F /  10.1 °C 30.01in /  1016.1hPa WNW 8.7mph /  14km/h 16mph /  25.7km/h 66.3% 0.00in /  0mm 211 W/m2
18:54 61.7 °F /  16.5 °C 50.2 °F /  10.1 °C 30.01in /  1016.1hPa West 7.3mph /  11.7km/h 16mph /  25.7km/h 66% 0.00in /  0mm 211 W/m2
18:59 61.6 °F /  16.4 °C 50.1 °F /  10.1 °C 30.01in /  1016.1hPa WNW 9.4mph /  15.1km/h 18mph /  29km/h 66% 0.00in /  0mm 193 W/m2
19:04 61.5 °F /  16.4 °C 50.1 °F /  10.1 °C 30.01in /  1016.1hPa WNW 9mph /  14.5km/h 18mph /  29km/h 66.2% 0.00in /  0mm 197 W/m2
19:09 61.3 °F /  16.3 °C 50.2 °F /  10.1 °C 30.01in /  1016.1hPa WNW 6.3mph /  10.1km/h 18mph /  29km/h 66.8% 0.00in /  0mm 167 W/m2
19:14 61.2 °F /  16.2 °C 50.5 °F /  10.3 °C 30.01in /  1016.1hPa WNW 5.6mph /  9km/h 14mph /  22.5km/h 67.6% 0.00in /  0mm 162 W/m2
19:19 61.3 °F /  16.3 °C 50.3 °F /  10.2 °C 30.01in /  1016.1hPa West 9.6mph /  15.4km/h 15mph /  24.1km/h 67.1% 0.00in /  0mm 149 W/m2
19:24 61 °F /  16.1 °C 50 °F /  10 °C 30.02in /  1016.5hPa West 7.8mph /  12.6km/h 17mph /  27.4km/h 67% 0.00in /  0mm 135 W/m2
19:29 60.8 °F /  16 °C 49.9 °F /  9.9 °C 30.02in /  1016.5hPa WNW 6.2mph /  10km/h 17mph /  27.4km/h 67.3% 0.00in /  0mm 116 W/m2
19:34 60.8 °F /  16 °C 50.2 °F /  10.1 °C 30.02in /  1016.5hPa WNW 6mph /  9.7km/h 13mph /  20.9km/h 68% 0.00in /  0mm 100 W/m2
19:39 60.6 °F /  15.9 °C 50 °F /  10 °C 30.02in /  1016.5hPa WNW 6.2mph /  10km/h 15mph /  24.1km/h 68% 0.00in /  0mm 84 W/m2
19:44 60.4 °F /  15.8 °C 49.9 °F /  9.9 °C 30.02in /  1016.5hPa West 6.8mph /  10.9km/h 15mph /  24.1km/h 68.5% 0.00in /  0mm 72 W/m2
19:49 59.9 °F /  15.5 °C 49.5 °F /  9.7 °C 30.03in /  1016.8hPa West 7mph /  11.3km/h 15mph /  24.1km/h 68.8% 0.00in /  0mm 58 W/m2
19:54 59.5 °F /  15.3 °C 49.3 °F /  9.6 °C 30.03in /  1016.8hPa West 6.7mph /  10.8km/h 14mph /  22.5km/h 69% 0.00in /  0mm 47 W/m2
19:59 59.4 °F /  15.2 °C 49.1 °F /  9.5 °C 30.03in /  1016.8hPa West 6.4mph /  10.3km/h 12mph /  19.3km/h 69% 0.00in /  0mm 42 W/m2
20:04 59.1 °F /  15.1 °C 49.4 °F /  9.7 °C 30.03in /  1016.8hPa WNW 6.7mph /  10.8km/h 13mph /  20.9km/h 70% 0.00in /  0mm 33 W/m2
20:09 58.8 °F /  14.9 °C 49.1 °F /  9.5 °C 30.03in /  1016.8hPa WNW 4.7mph /  7.6km/h 13mph /  20.9km/h 69.9% 0.00in /  0mm 26 W/m2
20:14 58.6 °F /  14.8 °C 48.9 °F /  9.4 °C 30.03in /  1016.8hPa WNW 5.8mph /  9.3km/h 9mph /  14.5km/h 70% 0.00in /  0mm 21 W/m2
20:19 58.4 °F /  14.7 °C 48.7 °F /  9.3 °C 30.03in /  1016.8hPa WNW 5.7mph /  9.2km/h 10mph /  16.1km/h 70.3% 0.00in /  0mm 16 W/m2
20:24 58 °F /  14.4 °C 48.7 °F /  9.3 °C 30.04in /  1017.2hPa WNW 3.6mph /  5.8km/h 8mph /  12.9km/h 71% 0.00in /  0mm 14 W/m2
20:29 57.8 °F /  14.3 °C 48.5 °F /  9.2 °C 30.04in /  1017.2hPa West 4.5mph /  7.2km/h 8mph /  12.9km/h 71% 0.00in /  0mm 11 W/m2
20:34 57.6 °F /  14.2 °C 48.6 °F /  9.2 °C 30.04in /  1017.2hPa West 3.8mph /  6.1km/h 7mph /  11.3km/h 71.9% 0.00in /  0mm 7 W/m2
20:39 57.4 °F /  14.1 °C 48.4 °F /  9.1 °C 30.04in /  1017.2hPa West 2.7mph /  4.3km/h 7mph /  11.3km/h 72% 0.00in /  0mm 5 W/m2
20:44 57.1 °F /  13.9 °C 48.2 °F /  9 °C 30.04in /  1017.2hPa West 2.7mph /  4.3km/h 6mph /  9.7km/h 72.1% 0.00in /  0mm 0 W/m2
20:49 57 °F /  13.9 °C 48.4 °F /  9.1 °C 30.04in /  1017.2hPa West 2.7mph /  4.3km/h 7mph /  11.3km/h 73% 0.00in /  0mm 0 W/m2
20:54 56.8 °F /  13.8 °C 48.1 °F /  8.9 °C 30.05in /  1017.5hPa West 1.8mph /  2.9km/h 7mph /  11.3km/h 73% 0.00in /  0mm 0 W/m2
20:59 56.6 °F /  13.7 °C 48.1 °F /  8.9 °C 30.05in /  1017.5hPa West 1.7mph /  2.7km/h 5mph /  8km/h 73.3% 0.00in /  0mm 0 W/m2
21:04 56.3 °F /  13.5 °C 48.2 °F /  9 °C 30.05in /  1017.5hPa West 1.6mph /  2.6km/h 4mph /  6.4km/h 73.9% 0.00in /  0mm 0 W/m2
21:09 56.1 °F /  13.4 °C 48 °F /  8.9 °C 30.05in /  1017.5hPa West 1.8mph /  2.9km/h 4mph /  6.4km/h 74% 0.00in /  0mm 0 W/m2
21:14 56.1 °F /  13.4 °C 48 °F /  8.9 °C 30.05in /  1017.5hPa West 0.6mph /  1km/h 4mph /  6.4km/h 74% 0.00in /  0mm 0 W/m2
21:19 55.9 °F /  13.3 °C 47.8 °F /  8.8 °C 30.05in /  1017.5hPa West 0.9mph /  1.4km/h 3mph /  4.8km/h 74% 0.00in /  0mm 0 W/m2
21:24 55.8 °F /  13.2 °C 47.7 °F /  8.7 °C 30.05in /  1017.5hPa West 0.8mph /  1.3km/h 3mph /  4.8km/h 74% 0.00in /  0mm 0 W/m2
21:29 55.8 °F /  13.2 °C 47.8 °F /  8.8 °C 30.05in /  1017.5hPa West 1.4mph /  2.3km/h 4mph /  6.4km/h 74.4% 0.00in /  0mm 0 W/m2
21:34 55.6 °F /  13.1 °C 47.8 °F /  8.8 °C 30.05in /  1017.5hPa West 1.1mph /  1.8km/h 4mph /  6.4km/h 75% 0.00in /  0mm 0 W/m2
21:39 55.4 °F /  13 °C 47.7 °F /  8.7 °C 30.05in /  1017.5hPa West 1.4mph /  2.3km/h 3mph /  4.8km/h 75% 0.00in /  0mm 0 W/m2
21:44 55.3 °F /  12.9 °C 47.6 °F /  8.7 °C 30.06in /  1017.8hPa West 0.5mph /  0.8km/h 3mph /  4.8km/h 75% 0.00in /  0mm 0 W/m2
21:49 55.2 °F /  12.9 °C 47.5 °F /  8.6 °C 30.06in /  1017.8hPa West 0.8mph /  1.3km/h 4mph /  6.4km/h 75% 0.00in /  0mm 0 W/m2
21:54 55.1 °F /  12.8 °C 47.7 °F /  8.7 °C 30.06in /  1017.8hPa West 1.5mph /  2.4km/h 5mph /  8km/h 75.9% 0.00in /  0mm 0 W/m2
21:59 55.1 °F /  12.8 °C 47.8 °F /  8.8 °C 30.06in /  1017.8hPa West 2.4mph /  3.9km/h 7mph /  11.3km/h 76% 0.00in /  0mm 0 W/m2
22:04 55.3 °F /  12.9 °C 48.2 °F /  9 °C 30.06in /  1017.8hPa West 3.7mph /  6km/h 8mph /  12.9km/h 76.8% 0.00in /  0mm 0 W/m2
22:09 55.4 °F /  13 °C 48.7 °F /  9.3 °C 30.06in /  1017.8hPa West 4.9mph /  7.9km/h 12mph /  19.3km/h 78.2% 0.01in /  0.25mm 0 W/m2
22:14 55.4 °F /  13 °C 49.1 °F /  9.5 °C 30.06in /  1017.8hPa West 5mph /  8km/h 12mph /  19.3km/h 79.5% 0.01in /  0.25mm 0 W/m2
22:19 55.2 °F /  12.9 °C 49.6 °F /  9.8 °C 30.06in /  1017.8hPa WSW 3mph /  4.8km/h 9mph /  14.5km/h 81.4% 0.01in /  0.25mm 0 W/m2
22:24 55 °F /  12.8 °C 49.7 °F /  9.8 °C 30.07in /  1018.2hPa WSW 3.2mph /  5.1km/h 9mph /  14.5km/h 82.3% 0.01in /  0.25mm 0 W/m2
22:29 54.9 °F /  12.7 °C 49.8 °F /  9.9 °C 30.07in /  1018.2hPa West 3.3mph /  5.3km/h 9mph /  14.5km/h 83% 0.02in /  0.51mm 0 W/m2
22:34 54.3 °F /  12.4 °C 49.6 °F /  9.8 °C 30.07in /  1018.2hPa West 8.3mph /  13.4km/h 15mph /  24.1km/h 83.9% 0.03in /  0.76mm 0 W/m2
22:39 53.7 °F /  12.1 °C 49.3 °F /  9.6 °C 30.07in /  1018.2hPa West 7.3mph /  11.7km/h 12mph /  19.3km/h 84.8% 0.04in /  1.02mm 0 W/m2
22:44 53.1 °F /  11.7 °C 48.9 °F /  9.4 °C 30.07in /  1018.2hPa West 3.4mph /  5.5km/h 12mph /  19.3km/h 85.9% 0.06in /  1.52mm 0 W/m2
22:49 52.5 °F /  11.4 °C 48.7 °F /  9.3 °C 30.07in /  1018.2hPa West 5.1mph /  8.2km/h 9mph /  14.5km/h 86.7% 0.08in /  2.03mm 0 W/m2
22:54 52.1 °F /  11.2 °C 48.3 °F /  9.1 °C 30.07in /  1018.2hPa West 4.3mph /  6.9km/h 10mph /  16.1km/h 87% 0.09in /  2.29mm 0 W/m2
22:59 51.8 °F /  11 °C 48.3 °F /  9.1 °C 30.07in /  1018.2hPa West 2.2mph /  3.5km/h 7mph /  11.3km/h 87.8% 0.10in /  2.54mm 0 W/m2
23:04 51.6 °F /  10.9 °C 48.2 °F /  9 °C 30.07in /  1018.2hPa WNW 2.6mph /  4.2km/h 7mph /  11.3km/h 88% 0.11in /  2.79mm 0 W/m2
23:09 51.6 °F /  10.9 °C 48.4 °F /  9.1 °C 30.07in /  1018.2hPa WNW 1.5mph /  2.4km/h 5mph /  8km/h 88.6% 0.12in /  3.05mm 0 W/m2
23:14 51.5 °F /  10.8 °C 48.5 °F /  9.2 °C 30.07in /  1018.2hPa WNW 0.9mph /  1.4km/h 4mph /  6.4km/h 89% 0.11in /  2.79mm 0 W/m2
23:19 51.4 °F /  10.8 °C 48.4 °F /  9.1 °C 30.06in /  1017.8hPa Calm   2mph /  3.2km/h 89% 0.11in /  2.79mm 0 W/m2
23:24 51.4 °F /  10.8 °C 48.6 °F /  9.2 °C 30.06in /  1017.8hPa WNW 0.1mph /  0.2km/h 1mph /  1.6km/h 89.8% 0.11in /  2.79mm 0 W/m2
23:29 51.4 °F /  10.8 °C 48.6 °F /  9.2 °C 30.06in /  1017.8hPa Calm   1mph /  1.6km/h 90% 0.11in /  2.79mm 0 W/m2
23:34 51.4 °F /  10.8 °C 48.6 °F /  9.2 °C 30.06in /  1017.8hPa Calm   1mph /  1.6km/h 90% 0.11in /  2.79mm 0 W/m2
23:39 51.4 °F /  10.8 °C 48.6 °F /  9.2 °C 30.06in /  1017.8hPa Calm     90% 0.09in /  2.29mm 0 W/m2
23:44 51.7 °F /  10.9 °C 48.8 °F /  9.3 °C 30.06in /  1017.8hPa Calm     90% 0.08in /  2.03mm 0 W/m2
23:49 51.8 °F /  11 °C 48.9 °F /  9.4 °C 30.06in /  1017.8hPa Calm     90.1% 0.06in /  1.52mm 0 W/m2
23:54 51.8 °F /  11 °C 49.2 °F /  9.6 °C 30.06in /  1017.8hPa Calm     90.6% 0.04in /  1.02mm 0 W/m2
23:59 51.8 °F /  11 °C 49.3 °F /  9.6 °C 30.05in /  1017.5hPa WNW 0.3mph /  0.5km/h 1mph /  1.6km/h 91% 0.04in /  1.02mm 0 W/m2
Bath Spa Weather
Compliments of Weather Underground - 2 mb